sensor_id;sensor_type;location;lat;lon;timestamp;temperature;humidity
24800;DHT22;12897;50.812;4.430;2024-01-15T00:00:45;2.70;99.90
24800;DHT22;12897;50.812;4.430;2024-01-15T00:03:12;2.70;99.90
24800;DHT22;12897;50.812;4.430;2024-01-15T00:05:40;2.70;99.90
24800;DHT22;12897;50.812;4.430;2024-01-15T00:08:07;2.70;99.90
24800;DHT22;12897;50.812;4.430;2024-01-15T00:10:36;2.80;99.90
24800;DHT22;12897;50.812;4.430;2024-01-15T00:13:06;2.80;99.90
24800;DHT22;12897;50.812;4.430;2024-01-15T00:15:33;2.70;99.90
24800;DHT22;12897;50.812;4.430;2024-01-15T00:18:04;2.80;99.90
24800;DHT22;12897;50.812;4.430;2024-01-15T00:20:33;2.70;99.90
24800;DHT22;12897;50.812;4.430;2024-01-15T00:23:06;2.80;99.90
24800;DHT22;12897;50.812;4.430;2024-01-15T00:25:30;2.80;99.90
24800;DHT22;12897;50.812;4.430;2024-01-15T00:27:57;2.70;99.90
24800;DHT22;12897;50.812;4.430;2024-01-15T00:30:25;2.70;99.90
24800;DHT22;12897;50.812;4.430;2024-01-15T00:32:53;2.80;99.90
24800;DHT22;12897;50.812;4.430;2024-01-15T00:35:20;2.80;99.90
24800;DHT22;12897;50.812;4.430;2024-01-15T00:37:49;2.80;99.90
24800;DHT22;12897;50.812;4.430;2024-01-15T00:40:16;2.70;99.90
24800;DHT22;12897;50.812;4.430;2024-01-15T00:42:50;2.70;99.90
24800;DHT22;12897;50.812;4.430;2024-01-15T00:45:29;2.60;99.90
24800;DHT22;12897;50.812;4.430;2024-01-15T00:48:04;2.60;99.90
24800;DHT22;12897;50.812;4.430;2024-01-15T00:50:36;2.80;99.90
24800;DHT22;12897;50.812;4.430;2024-01-15T00:53:03;2.70;99.90
24800;DHT22;12897;50.812;4.430;2024-01-15T00:55:31;2.70;99.90
24800;DHT22;12897;50.812;4.430;2024-01-15T00:57:59;2.70;99.90
24800;DHT22;12897;50.812;4.430;2024-01-15T01:00:26;2.80;99.90
24800;DHT22;12897;50.812;4.430;2024-01-15T01:02:54;2.80;99.90
24800;DHT22;12897;50.812;4.430;2024-01-15T01:05:21;2.80;99.90
24800;DHT22;12897;50.812;4.430;2024-01-15T01:07:49;2.80;99.90
24800;DHT22;12897;50.812;4.430;2024-01-15T01:10:18;2.80;99.90
24800;DHT22;12897;50.812;4.430;2024-01-15T01:12:48;2.80;99.90
24800;DHT22;12897;50.812;4.430;2024-01-15T01:15:16;2.80;99.90
24800;DHT22;12897;50.812;4.430;2024-01-15T01:17:45;2.80;99.90
24800;DHT22;12897;50.812;4.430;2024-01-15T01:20:13;2.80;99.90
24800;DHT22;12897;50.812;4.430;2024-01-15T01:22:42;2.90;99.90
24800;DHT22;12897;50.812;4.430;2024-01-15T01:25:09;2.90;99.90
24800;DHT22;12897;50.812;4.430;2024-01-15T01:27:37;2.90;99.90
24800;DHT22;12897;50.812;4.430;2024-01-15T01:30:05;2.90;99.90
24800;DHT22;12897;50.812;4.430;2024-01-15T01:32:33;2.90;99.90
24800;DHT22;12897;50.812;4.430;2024-01-15T01:35:04;2.90;99.90
24800;DHT22;12897;50.812;4.430;2024-01-15T01:37:36;3.00;99.90
24800;DHT22;12897;50.812;4.430;2024-01-15T01:40:04;2.90;99.90
24800;DHT22;12897;50.812;4.430;2024-01-15T01:42:32;2.80;99.90
24800;DHT22;12897;50.812;4.430;2024-01-15T01:45:00;2.90;99.90
24800;DHT22;12897;50.812;4.430;2024-01-15T01:47:27;3.00;99.90
24800;DHT22;12897;50.812;4.430;2024-01-15T01:49:55;2.90;99.90
24800;DHT22;12897;50.812;4.430;2024-01-15T01:52:24;2.80;99.90
24800;DHT22;12897;50.812;4.430;2024-01-15T01:54:52;2.90;99.90
24800;DHT22;12897;50.812;4.430;2024-01-15T01:57:20;2.80;99.90
24800;DHT22;12897;50.812;4.430;2024-01-15T01:59:51;2.80;99.90
24800;DHT22;12897;50.812;4.430;2024-01-15T02:02:20;2.80;99.90
24800;DHT22;12897;50.812;4.430;2024-01-15T02:04:50;2.80;99.90
24800;DHT22;12897;50.812;4.430;2024-01-15T02:07:17;2.90;99.90
24800;DHT22;12897;50.812;4.430;2024-01-15T02:09:45;2.90;99.90
24800;DHT22;12897;50.812;4.430;2024-01-15T02:12:13;2.90;99.90
24800;DHT22;12897;50.812;4.430;2024-01-15T02:14:40;2.90;99.90
24800;DHT22;12897;50.812;4.430;2024-01-15T02:17:08;2.90;99.90
24800;DHT22;12897;50.812;4.430;2024-01-15T02:19:35;2.90;99.90
24800;DHT22;12897;50.812;4.430;2024-01-15T02:22:03;3.00;99.90
24800;DHT22;12897;50.812;4.430;2024-01-15T02:24:31;2.90;99.90
24800;DHT22;12897;50.812;4.430;2024-01-15T02:26:59;3.00;99.90
24800;DHT22;12897;50.812;4.430;2024-01-15T02:29:29;3.00;99.90
24800;DHT22;12897;50.812;4.430;2024-01-15T02:31:58;3.10;99.90
24800;DHT22;12897;50.812;4.430;2024-01-15T02:34:26;3.10;99.90
24800;DHT22;12897;50.812;4.430;2024-01-15T02:36:55;2.90;99.90
24800;DHT22;12897;50.812;4.430;2024-01-15T02:39:22;3.00;99.90
24800;DHT22;12897;50.812;4.430;2024-01-15T02:41:50;2.90;99.90
24800;DHT22;12897;50.812;4.430;2024-01-15T02:44:17;3.00;99.90
24800;DHT22;12897;50.812;4.430;2024-01-15T02:46:45;3.00;99.90
24800;DHT22;12897;50.812;4.430;2024-01-15T02:49:13;2.90;99.90
24800;DHT22;12897;50.812;4.430;2024-01-15T02:51:40;3.00;99.90
24800;DHT22;12897;50.812;4.430;2024-01-15T02:54:08;3.10;99.90
24800;DHT22;12897;50.812;4.430;2024-01-15T02:56:36;3.00;99.90
24800;DHT22;12897;50.812;4.430;2024-01-15T02:59:04;3.10;99.90
24800;DHT22;12897;50.812;4.430;2024-01-15T03:01:32;3.10;99.90
24800;DHT22;12897;50.812;4.430;2024-01-15T03:03:59;3.00;99.90
24800;DHT22;12897;50.812;4.430;2024-01-15T03:06:33;3.00;99.90
24800;DHT22;12897;50.812;4.430;2024-01-15T03:09:00;3.00;99.90
24800;DHT22;12897;50.812;4.430;2024-01-15T03:11:36;3.10;99.90
24800;DHT22;12897;50.812;4.430;2024-01-15T03:14:00;3.20;99.90
24800;DHT22;12897;50.812;4.430;2024-01-15T03:16:27;3.20;99.90
24800;DHT22;12897;50.812;4.430;2024-01-15T03:18:57;3.20;99.90
24800;DHT22;12897;50.812;4.430;2024-01-15T03:21:24;3.10;99.90
24800;DHT22;12897;50.812;4.430;2024-01-15T03:23:52;3.10;99.90
24800;DHT22;12897;50.812;4.430;2024-01-15T03:26:19;3.10;99.90
24800;DHT22;12897;50.812;4.430;2024-01-15T03:28:47;3.10;99.90
24800;DHT22;12897;50.812;4.430;2024-01-15T03:31:15;3.10;99.90
24800;DHT22;12897;50.812;4.430;2024-01-15T03:33:42;3.10;99.90
24800;DHT22;12897;50.812;4.430;2024-01-15T03:36:10;3.20;99.90
24800;DHT22;12897;50.812;4.430;2024-01-15T03:38:42;3.30;99.90
24800;DHT22;12897;50.812;4.430;2024-01-15T03:41:10;3.30;99.90
24800;DHT22;12897;50.812;4.430;2024-01-15T03:43:37;3.30;99.90
24800;DHT22;12897;50.812;4.430;2024-01-15T03:46:06;3.30;99.90
24800;DHT22;12897;50.812;4.430;2024-01-15T03:48:34;3.40;99.90
24800;DHT22;12897;50.812;4.430;2024-01-15T03:51:01;3.20;99.90
24800;DHT22;12897;50.812;4.430;2024-01-15T03:53:37;3.00;99.90
24800;DHT22;12897;50.812;4.430;2024-01-15T03:56:08;3.10;99.90
24800;DHT22;12897;50.812;4.430;2024-01-15T03:58:38;3.10;99.90
24800;DHT22;12897;50.812;4.430;2024-01-15T04:01:09;3.10;99.90
24800;DHT22;12897;50.812;4.430;2024-01-15T04:03:38;3.10;99.90
24800;DHT22;12897;50.812;4.430;2024-01-15T04:06:06;3.10;99.90
24800;DHT22;12897;50.812;4.430;2024-01-15T04:08:33;3.10;99.90
24800;DHT22;12897;50.812;4.430;2024-01-15T04:11:01;3.20;99.90
24800;DHT22;12897;50.812;4.430;2024-01-15T04:13:28;3.20;99.90
24800;DHT22;12897;50.812;4.430;2024-01-15T04:15:58;3.20;99.90
24800;DHT22;12897;50.812;4.430;2024-01-15T04:18:25;3.10;99.90
24800;DHT22;12897;50.812;4.430;2024-01-15T04:20:53;3.20;99.90
24800;DHT22;12897;50.812;4.430;2024-01-15T04:23:20;3.30;99.90
24800;DHT22;12897;50.812;4.430;2024-01-15T04:25:48;3.20;99.90
24800;DHT22;12897;50.812;4.430;2024-01-15T04:28:16;3.10;99.90
24800;DHT22;12897;50.812;4.430;2024-01-15T04:30:44;3.20;99.90
24800;DHT22;12897;50.812;4.430;2024-01-15T04:33:11;3.20;99.90
24800;DHT22;12897;50.812;4.430;2024-01-15T04:35:39;3.20;99.90
24800;DHT22;12897;50.812;4.430;2024-01-15T04:38:07;3.30;99.90
24800;DHT22;12897;50.812;4.430;2024-01-15T04:40:34;3.20;99.90
24800;DHT22;12897;50.812;4.430;2024-01-15T04:43:06;3.20;99.90
24800;DHT22;12897;50.812;4.430;2024-01-15T04:45:39;3.20;99.90
24800;DHT22;12897;50.812;4.430;2024-01-15T04:48:07;3.10;99.90
24800;DHT22;12897;50.812;4.430;2024-01-15T04:50:35;3.10;99.90
24800;DHT22;12897;50.812;4.430;2024-01-15T04:53:14;3.20;99.90
24800;DHT22;12897;50.812;4.430;2024-01-15T04:55:45;3.10;99.90
24800;DHT22;12897;50.812;4.430;2024-01-15T04:58:12;3.00;99.90
24800;DHT22;12897;50.812;4.430;2024-01-15T05:00:40;2.90;99.90
24800;DHT22;12897;50.812;4.430;2024-01-15T05:03:07;3.00;99.90
24800;DHT22;12897;50.812;4.430;2024-01-15T05:05:35;3.10;99.90
24800;DHT22;12897;50.812;4.430;2024-01-15T05:08:03;3.00;99.90
24800;DHT22;12897;50.812;4.430;2024-01-15T05:10:31;3.00;99.90
24800;DHT22;12897;50.812;4.430;2024-01-15T05:12:58;3.00;99.90
24800;DHT22;12897;50.812;4.430;2024-01-15T05:15:26;3.00;99.90
24800;DHT22;12897;50.812;4.430;2024-01-15T05:17:53;2.90;99.90
24800;DHT22;12897;50.812;4.430;2024-01-15T05:20:21;2.80;99.90
24800;DHT22;12897;50.812;4.430;2024-01-15T05:22:52;2.70;99.90
24800;DHT22;12897;50.812;4.430;2024-01-15T05:25:19;2.70;99.90
24800;DHT22;12897;50.812;4.430;2024-01-15T05:27:47;2.70;99.90
24800;DHT22;12897;50.812;4.430;2024-01-15T05:30:15;2.70;99.90
24800;DHT22;12897;50.812;4.430;2024-01-15T05:32:44;2.50;99.90
24800;DHT22;12897;50.812;4.430;2024-01-15T05:35:13;2.50;99.90
24800;DHT22;12897;50.812;4.430;2024-01-15T05:37:43;2.40;99.90
24800;DHT22;12897;50.812;4.430;2024-01-15T05:40:13;2.50;99.90
24800;DHT22;12897;50.812;4.430;2024-01-15T05:42:41;2.60;99.90
24800;DHT22;12897;50.812;4.430;2024-01-15T05:45:09;2.60;99.90
24800;DHT22;12897;50.812;4.430;2024-01-15T05:47:37;2.50;99.90
24800;DHT22;12897;50.812;4.430;2024-01-15T05:50:05;2.50;99.90
24800;DHT22;12897;50.812;4.430;2024-01-15T05:52:34;2.50;99.90
24800;DHT22;12897;50.812;4.430;2024-01-15T05:55:07;2.50;99.90
24800;DHT22;12897;50.812;4.430;2024-01-15T05:57:32;2.50;99.90
24800;DHT22;12897;50.812;4.430;2024-01-15T06:00:00;2.40;99.90
24800;DHT22;12897;50.812;4.430;2024-01-15T06:02:28;2.50;99.90
24800;DHT22;12897;50.812;4.430;2024-01-15T06:04:56;2.40;99.90
24800;DHT22;12897;50.812;4.430;2024-01-15T06:07:24;2.40;99.90
24800;DHT22;12897;50.812;4.430;2024-01-15T06:09:53;2.40;99.90
24800;DHT22;12897;50.812;4.430;2024-01-15T06:12:23;2.40;99.90
24800;DHT22;12897;50.812;4.430;2024-01-15T06:14:50;2.40;99.90
24800;DHT22;12897;50.812;4.430;2024-01-15T06:17:22;2.40;99.90
24800;DHT22;12897;50.812;4.430;2024-01-15T06:19:51;2.40;99.90
24800;DHT22;12897;50.812;4.430;2024-01-15T06:22:27;2.30;99.90
24800;DHT22;12897;50.812;4.430;2024-01-15T06:25:00;2.20;99.90
24800;DHT22;12897;50.812;4.430;2024-01-15T06:27:40;2.10;99.90
24800;DHT22;12897;50.812;4.430;2024-01-15T06:30:12;2.10;99.90
24800;DHT22;12897;50.812;4.430;2024-01-15T06:32:40;2.10;99.90
24800;DHT22;12897;50.812;4.430;2024-01-15T06:35:08;2.10;99.90
24800;DHT22;12897;50.812;4.430;2024-01-15T06:37:37;2.00;99.90
24800;DHT22;12897;50.812;4.430;2024-01-15T06:40:06;2.10;99.90
24800;DHT22;12897;50.812;4.430;2024-01-15T06:42:34;2.00;99.90
24800;DHT22;12897;50.812;4.430;2024-01-15T06:45:07;1.90;99.90
24800;DHT22;12897;50.812;4.430;2024-01-15T06:47:34;1.90;99.90
24800;DHT22;12897;50.812;4.430;2024-01-15T06:50:01;1.90;99.90
24800;DHT22;12897;50.812;4.430;2024-01-15T06:52:33;1.90;99.90
24800;DHT22;12897;50.812;4.430;2024-01-15T06:55:02;1.90;99.90
24800;DHT22;12897;50.812;4.430;2024-01-15T06:57:31;1.90;99.90
24800;DHT22;12897;50.812;4.430;2024-01-15T07:00:03;1.80;99.90
24800;DHT22;12897;50.812;4.430;2024-01-15T07:02:31;1.90;99.90
24800;DHT22;12897;50.812;4.430;2024-01-15T07:05:02;2.00;99.90
24800;DHT22;12897;50.812;4.430;2024-01-15T07:07:31;2.00;99.90
24800;DHT22;12897;50.812;4.430;2024-01-15T07:10:08;2.00;99.90
24800;DHT22;12897;50.812;4.430;2024-01-15T07:12:38;2.00;99.90
24800;DHT22;12897;50.812;4.430;2024-01-15T07:15:12;1.90;99.90
24800;DHT22;12897;50.812;4.430;2024-01-15T07:17:45;1.90;99.90
24800;DHT22;12897;50.812;4.430;2024-01-15T07:20:23;1.80;99.90
24800;DHT22;12897;50.812;4.430;2024-01-15T07:22:53;1.90;99.90
24800;DHT22;12897;50.812;4.430;2024-01-15T07:25:22;1.90;99.90
24800;DHT22;12897;50.812;4.430;2024-01-15T07:27:52;1.90;99.90
24800;DHT22;12897;50.812;4.430;2024-01-15T07:30:23;1.90;99.90
24800;DHT22;12897;50.812;4.430;2024-01-15T07:32:55;1.90;99.90
24800;DHT22;12897;50.812;4.430;2024-01-15T07:35:24;1.90;99.90
24800;DHT22;12897;50.812;4.430;2024-01-15T07:37:53;1.80;99.90
24800;DHT22;12897;50.812;4.430;2024-01-15T07:40:21;1.80;99.90
24800;DHT22;12897;50.812;4.430;2024-01-15T07:42:49;1.70;99.90
24800;DHT22;12897;50.812;4.430;2024-01-15T07:45:16;1.90;99.90
24800;DHT22;12897;50.812;4.430;2024-01-15T07:47:47;1.90;99.90
24800;DHT22;12897;50.812;4.430;2024-01-15T07:50:15;1.90;99.90
24800;DHT22;12897;50.812;4.430;2024-01-15T07:52:43;1.90;99.90
24800;DHT22;12897;50.812;4.430;2024-01-15T07:55:13;2.10;99.90
24800;DHT22;12897;50.812;4.430;2024-01-15T07:57:42;2.10;99.90
24800;DHT22;12897;50.812;4.430;2024-01-15T08:00:10;2.10;99.90
24800;DHT22;12897;50.812;4.430;2024-01-15T08:02:39;2.10;99.90
24800;DHT22;12897;50.812;4.430;2024-01-15T08:05:08;2.10;99.90
24800;DHT22;12897;50.812;4.430;2024-01-15T08:07:41;2.20;99.90
24800;DHT22;12897;50.812;4.430;2024-01-15T08:10:05;2.20;99.90
24800;DHT22;12897;50.812;4.430;2024-01-15T08:12:33;2.10;99.90
24800;DHT22;12897;50.812;4.430;2024-01-15T08:15:00;2.10;99.90
24800;DHT22;12897;50.812;4.430;2024-01-15T08:17:34;2.10;99.90
24800;DHT22;12897;50.812;4.430;2024-01-15T08:20:02;2.20;99.90
24800;DHT22;12897;50.812;4.430;2024-01-15T08:22:38;2.30;99.90
24800;DHT22;12897;50.812;4.430;2024-01-15T08:25:09;2.30;99.90
24800;DHT22;12897;50.812;4.430;2024-01-15T08:27:37;2.40;99.90
24800;DHT22;12897;50.812;4.430;2024-01-15T08:30:05;2.50;99.90
24800;DHT22;12897;50.812;4.430;2024-01-15T08:32:33;2.50;99.90
24800;DHT22;12897;50.812;4.430;2024-01-15T08:35:03;2.70;99.90
24800;DHT22;12897;50.812;4.430;2024-01-15T08:37:33;2.70;99.90
24800;DHT22;12897;50.812;4.430;2024-01-15T08:40:01;2.70;99.90
24800;DHT22;12897;50.812;4.430;2024-01-15T08:42:30;2.80;99.90
24800;DHT22;12897;50.812;4.430;2024-01-15T08:44:57;2.80;99.90
24800;DHT22;12897;50.812;4.430;2024-01-15T08:47:25;2.80;99.90
24800;DHT22;12897;50.812;4.430;2024-01-15T08:49:53;2.90;99.90
24800;DHT22;12897;50.812;4.430;2024-01-15T08:52:22;2.80;99.90
24800;DHT22;12897;50.812;4.430;2024-01-15T08:54:49;2.70;99.90
24800;DHT22;12897;50.812;4.430;2024-01-15T08:57:17;2.80;99.90
24800;DHT22;12897;50.812;4.430;2024-01-15T08:59:45;2.80;99.90
24800;DHT22;12897;50.812;4.430;2024-01-15T09:02:13;2.70;99.90
24800;DHT22;12897;50.812;4.430;2024-01-15T09:04:43;2.60;99.90
24800;DHT22;12897;50.812;4.430;2024-01-15T09:07:11;2.60;99.90
24800;DHT22;12897;50.812;4.430;2024-01-15T09:09:38;2.70;99.90
24800;DHT22;12897;50.812;4.430;2024-01-15T09:12:07;2.70;99.90
24800;DHT22;12897;50.812;4.430;2024-01-15T09:14:35;2.80;99.90
24800;DHT22;12897;50.812;4.430;2024-01-15T09:17:04;2.70;99.90
24800;DHT22;12897;50.812;4.430;2024-01-15T09:19:33;2.70;99.90
24800;DHT22;12897;50.812;4.430;2024-01-15T09:22:00;2.60;99.90
24800;DHT22;12897;50.812;4.430;2024-01-15T09:24:28;2.60;99.90
24800;DHT22;12897;50.812;4.430;2024-01-15T09:26:56;2.60;99.90
24800;DHT22;12897;50.812;4.430;2024-01-15T09:29:23;2.70;99.90
24800;DHT22;12897;50.812;4.430;2024-01-15T09:31:53;2.70;99.90
24800;DHT22;12897;50.812;4.430;2024-01-15T09:34:20;2.80;99.90
24800;DHT22;12897;50.812;4.430;2024-01-15T09:36:49;2.80;99.90
24800;DHT22;12897;50.812;4.430;2024-01-15T09:39:18;2.70;99.90
24800;DHT22;12897;50.812;4.430;2024-01-15T09:41:45;2.80;99.90
24800;DHT22;12897;50.812;4.430;2024-01-15T09:44:14;2.80;99.90
24800;DHT22;12897;50.812;4.430;2024-01-15T09:46:43;2.80;99.90
24800;DHT22;12897;50.812;4.430;2024-01-15T09:49:11;2.80;99.90
24800;DHT22;12897;50.812;4.430;2024-01-15T09:51:39;2.90;99.90
24800;DHT22;12897;50.812;4.430;2024-01-15T09:54:08;2.90;99.90
24800;DHT22;12897;50.812;4.430;2024-01-15T09:56:41;2.80;99.90
24800;DHT22;12897;50.812;4.430;2024-01-15T09:59:09;2.80;99.90
24800;DHT22;12897;50.812;4.430;2024-01-15T10:01:37;2.80;99.90
24800;DHT22;12897;50.812;4.430;2024-01-15T10:04:05;2.90;99.90
24800;DHT22;12897;50.812;4.430;2024-01-15T10:06:38;3.00;99.90
24800;DHT22;12897;50.812;4.430;2024-01-15T10:09:08;3.20;99.90
24800;DHT22;12897;50.812;4.430;2024-01-15T10:11:36;3.40;99.90
24800;DHT22;12897;50.812;4.430;2024-01-15T10:14:04;3.40;99.90
24800;DHT22;12897;50.812;4.430;2024-01-15T10:16:31;3.50;99.90
24800;DHT22;12897;50.812;4.430;2024-01-15T10:19:00;3.60;99.90
24800;DHT22;12897;50.812;4.430;2024-01-15T10:21:28;3.60;99.90
24800;DHT22;12897;50.812;4.430;2024-01-15T10:23:56;3.50;99.90
24800;DHT22;12897;50.812;4.430;2024-01-15T10:26:26;3.50;99.90
24800;DHT22;12897;50.812;4.430;2024-01-15T10:28:54;3.40;99.90
24800;DHT22;12897;50.812;4.430;2024-01-15T10:31:21;3.30;99.90
24800;DHT22;12897;50.812;4.430;2024-01-15T10:33:49;3.30;99.90
24800;DHT22;12897;50.812;4.430;2024-01-15T10:36:17;3.30;99.90
24800;DHT22;12897;50.812;4.430;2024-01-15T10:38:45;3.40;99.90
24800;DHT22;12897;50.812;4.430;2024-01-15T10:41:13;3.40;99.90
24800;DHT22;12897;50.812;4.430;2024-01-15T10:43:42;3.40;99.90
24800;DHT22;12897;50.812;4.430;2024-01-15T10:46:13;3.40;99.90
24800;DHT22;12897;50.812;4.430;2024-01-15T10:48:42;3.40;99.90
24800;DHT22;12897;50.812;4.430;2024-01-15T10:51:12;3.30;99.90
24800;DHT22;12897;50.812;4.430;2024-01-15T10:53:43;3.40;99.90
24800;DHT22;12897;50.812;4.430;2024-01-15T10:56:15;3.50;99.90
24800;DHT22;12897;50.812;4.430;2024-01-15T10:58:42;3.50;99.90
24800;DHT22;12897;50.812;4.430;2024-01-15T11:01:12;3.50;99.90
24800;DHT22;12897;50.812;4.430;2024-01-15T11:03:40;3.60;99.90
24800;DHT22;12897;50.812;4.430;2024-01-15T11:06:20;3.60;99.90
24800;DHT22;12897;50.812;4.430;2024-01-15T11:08:50;3.60;99.90
24800;DHT22;12897;50.812;4.430;2024-01-15T11:11:17;3.60;99.90
24800;DHT22;12897;50.812;4.430;2024-01-15T11:13:47;3.70;99.90
24800;DHT22;12897;50.812;4.430;2024-01-15T11:16:26;3.90;99.90
24800;DHT22;12897;50.812;4.430;2024-01-15T11:21:29;4.20;99.90
24800;DHT22;12897;50.812;4.430;2024-01-15T11:24:02;4.20;99.90
24800;DHT22;12897;50.812;4.430;2024-01-15T11:26:36;4.30;99.90
24800;DHT22;12897;50.812;4.430;2024-01-15T11:29:09;4.60;99.90
24800;DHT22;12897;50.812;4.430;2024-01-15T11:34:10;4.60;99.90
24800;DHT22;12897;50.812;4.430;2024-01-15T11:37:01;4.60;99.90
24800;DHT22;12897;50.812;4.430;2024-01-15T11:42:02;4.40;99.90
24800;DHT22;12897;50.812;4.430;2024-01-15T11:44:31;4.40;99.90
24800;DHT22;12897;50.812;4.430;2024-01-15T11:47:07;4.60;99.90
24800;DHT22;12897;50.812;4.430;2024-01-15T11:52:23;4.60;99.90
24800;DHT22;12897;50.812;4.430;2024-01-15T11:54:55;4.50;99.90
24800;DHT22;12897;50.812;4.430;2024-01-15T12:00:04;4.50;99.90
24800;DHT22;12897;50.812;4.430;2024-01-15T12:02:44;4.60;99.90
24800;DHT22;12897;50.812;4.430;2024-01-15T12:05:16;4.70;99.90
24800;DHT22;12897;50.812;4.430;2024-01-15T12:07:53;4.40;99.90
24800;DHT22;12897;50.812;4.430;2024-01-15T12:10:22;4.50;99.90
24800;DHT22;12897;50.812;4.430;2024-01-15T12:15:27;4.70;99.90
24800;DHT22;12897;50.812;4.430;2024-01-15T12:17:58;4.60;99.90
24800;DHT22;12897;50.812;4.430;2024-01-15T12:20:28;4.50;99.90
24800;DHT22;12897;50.812;4.430;2024-01-15T12:23:01;4.60;99.90
24800;DHT22;12897;50.812;4.430;2024-01-15T12:25:26;4.60;99.90
24800;DHT22;12897;50.812;4.430;2024-01-15T12:27:54;4.50;99.90
24800;DHT22;12897;50.812;4.430;2024-01-15T12:30:25;4.50;99.90
24800;DHT22;12897;50.812;4.430;2024-01-15T12:32:57;4.60;99.90
24800;DHT22;12897;50.812;4.430;2024-01-15T12:35:29;4.60;99.90
24800;DHT22;12897;50.812;4.430;2024-01-15T12:37:56;4.60;99.90
24800;DHT22;12897;50.812;4.430;2024-01-15T12:40:25;4.60;99.90
24800;DHT22;12897;50.812;4.430;2024-01-15T12:42:53;4.60;99.90
24800;DHT22;12897;50.812;4.430;2024-01-15T12:45:21;4.60;99.90
24800;DHT22;12897;50.812;4.430;2024-01-15T12:47:49;4.60;99.90
24800;DHT22;12897;50.812;4.430;2024-01-15T12:50:18;4.60;99.90
24800;DHT22;12897;50.812;4.430;2024-01-15T12:52:45;4.50;99.90
24800;DHT22;12897;50.812;4.430;2024-01-15T12:55:14;4.50;99.90
24800;DHT22;12897;50.812;4.430;2024-01-15T12:57:41;4.40;99.90
24800;DHT22;12897;50.812;4.430;2024-01-15T13:00:11;4.30;99.90
24800;DHT22;12897;50.812;4.430;2024-01-15T13:02:40;4.30;99.90
24800;DHT22;12897;50.812;4.430;2024-01-15T13:05:09;4.30;99.90
24800;DHT22;12897;50.812;4.430;2024-01-15T13:07:40;4.30;99.90
24800;DHT22;12897;50.812;4.430;2024-01-15T13:10:08;4.30;99.90
24800;DHT22;12897;50.812;4.430;2024-01-15T13:12:36;4.20;99.90
24800;DHT22;12897;50.812;4.430;2024-01-15T13:15:11;4.10;99.90
24800;DHT22;12897;50.812;4.430;2024-01-15T13:17:39;4.20;99.90
24800;DHT22;12897;50.812;4.430;2024-01-15T13:20:08;4.10;99.90
24800;DHT22;12897;50.812;4.430;2024-01-15T13:22:37;4.00;99.90
24800;DHT22;12897;50.812;4.430;2024-01-15T13:25:07;4.00;99.90
24800;DHT22;12897;50.812;4.430;2024-01-15T13:27:35;4.00;99.90
24800;DHT22;12897;50.812;4.430;2024-01-15T13:30:03;4.00;99.90
24800;DHT22;12897;50.812;4.430;2024-01-15T13:32:32;4.00;99.90
24800;DHT22;12897;50.812;4.430;2024-01-15T13:35:00;4.00;99.90
24800;DHT22;12897;50.812;4.430;2024-01-15T13:37:29;4.10;99.90
24800;DHT22;12897;50.812;4.430;2024-01-15T13:39:56;4.10;99.90
24800;DHT22;12897;50.812;4.430;2024-01-15T13:42:24;4.20;99.90
24800;DHT22;12897;50.812;4.430;2024-01-15T13:44:53;4.30;99.90
24800;DHT22;12897;50.812;4.430;2024-01-15T13:47:21;4.30;99.90
24800;DHT22;12897;50.812;4.430;2024-01-15T13:49:48;4.30;99.90
24800;DHT22;12897;50.812;4.430;2024-01-15T13:52:16;4.40;99.90
24800;DHT22;12897;50.812;4.430;2024-01-15T13:54:44;4.40;99.90
24800;DHT22;12897;50.812;4.430;2024-01-15T13:57:11;4.40;99.90
24800;DHT22;12897;50.812;4.430;2024-01-15T13:59:39;4.50;99.90
24800;DHT22;12897;50.812;4.430;2024-01-15T14:02:06;4.50;99.90
24800;DHT22;12897;50.812;4.430;2024-01-15T14:04:35;4.60;99.90
24800;DHT22;12897;50.812;4.430;2024-01-15T14:07:04;4.50;99.90
24800;DHT22;12897;50.812;4.430;2024-01-15T14:09:35;4.50;99.90
24800;DHT22;12897;50.812;4.430;2024-01-15T14:12:02;4.30;99.90
24800;DHT22;12897;50.812;4.430;2024-01-15T14:14:29;4.20;99.90
24800;DHT22;12897;50.812;4.430;2024-01-15T14:16:58;4.10;99.90
24800;DHT22;12897;50.812;4.430;2024-01-15T14:19:25;4.00;99.90
24800;DHT22;12897;50.812;4.430;2024-01-15T14:21:53;4.00;99.90
24800;DHT22;12897;50.812;4.430;2024-01-15T14:24:21;4.00;99.90
24800;DHT22;12897;50.812;4.430;2024-01-15T14:26:49;4.00;99.90
24800;DHT22;12897;50.812;4.430;2024-01-15T14:29:17;4.10;99.90
24800;DHT22;12897;50.812;4.430;2024-01-15T14:31:48;4.20;99.90
24800;DHT22;12897;50.812;4.430;2024-01-15T14:34:15;4.30;99.90
24800;DHT22;12897;50.812;4.430;2024-01-15T14:36:44;4.10;99.90
24800;DHT22;12897;50.812;4.430;2024-01-15T14:39:13;4.10;99.90
24800;DHT22;12897;50.812;4.430;2024-01-15T14:41:40;4.10;99.90
24800;DHT22;12897;50.812;4.430;2024-01-15T14:44:09;3.90;99.90
24800;DHT22;12897;50.812;4.430;2024-01-15T14:46:43;3.60;99.90
24800;DHT22;12897;50.812;4.430;2024-01-15T14:49:12;3.30;99.90
24800;DHT22;12897;50.812;4.430;2024-01-15T14:51:41;3.20;99.90
24800;DHT22;12897;50.812;4.430;2024-01-15T14:54:10;3.10;99.90
24800;DHT22;12897;50.812;4.430;2024-01-15T14:56:38;3.10;99.90
24800;DHT22;12897;50.812;4.430;2024-01-15T14:59:25;3.00;99.90
24800;DHT22;12897;50.812;4.430;2024-01-15T15:01:52;3.10;99.90
24800;DHT22;12897;50.812;4.430;2024-01-15T15:04:20;3.00;99.90
24800;DHT22;12897;50.812;4.430;2024-01-15T15:06:47;3.00;99.90
24800;DHT22;12897;50.812;4.430;2024-01-15T15:09:16;3.00;99.90
24800;DHT22;12897;50.812;4.430;2024-01-15T15:11:45;2.80;99.90
24800;DHT22;12897;50.812;4.430;2024-01-15T15:14:17;2.80;99.90
24800;DHT22;12897;50.812;4.430;2024-01-15T15:16:44;2.80;99.90
24800;DHT22;12897;50.812;4.430;2024-01-15T15:19:13;2.70;99.90
24800;DHT22;12897;50.812;4.430;2024-01-15T15:21:40;2.60;99.90
24800;DHT22;12897;50.812;4.430;2024-01-15T15:24:08;2.60;99.90
24800;DHT22;12897;50.812;4.430;2024-01-15T15:26:37;2.50;99.90
24800;DHT22;12897;50.812;4.430;2024-01-15T15:29:04;2.40;99.90
24800;DHT22;12897;50.812;4.430;2024-01-15T15:31:32;2.40;99.90
24800;DHT22;12897;50.812;4.430;2024-01-15T15:34:01;2.50;99.90
24800;DHT22;12897;50.812;4.430;2024-01-15T15:36:29;2.50;99.90
24800;DHT22;12897;50.812;4.430;2024-01-15T15:39:03;2.60;99.90
24800;DHT22;12897;50.812;4.430;2024-01-15T15:41:38;2.70;99.90
24800;DHT22;12897;50.812;4.430;2024-01-15T15:44:14;2.70;99.90
24800;DHT22;12897;50.812;4.430;2024-01-15T15:46:43;2.80;99.90
24800;DHT22;12897;50.812;4.430;2024-01-15T15:49:11;2.80;99.90
24800;DHT22;12897;50.812;4.430;2024-01-15T15:51:40;2.80;99.90
24800;DHT22;12897;50.812;4.430;2024-01-15T15:54:13;2.80;99.90
24800;DHT22;12897;50.812;4.430;2024-01-15T15:56:43;2.70;99.90
24800;DHT22;12897;50.812;4.430;2024-01-15T15:59:13;2.60;99.90
24800;DHT22;12897;50.812;4.430;2024-01-15T16:01:42;2.60;99.90
24800;DHT22;12897;50.812;4.430;2024-01-15T16:04:11;2.50;99.90
24800;DHT22;12897;50.812;4.430;2024-01-15T16:06:41;2.50;99.90
24800;DHT22;12897;50.812;4.430;2024-01-15T16:09:10;2.50;99.90
24800;DHT22;12897;50.812;4.430;2024-01-15T16:11:38;2.50;99.90